sensor_id;sensor_type;location;lat;lon;timestamp;P1;durP1;ratioP1;P2;durP2;ratioP2
35578;SDS011;21687;48.900;9.188;2024-01-30T00:00:39;17.27;;;12.30;;
35578;SDS011;21687;48.900;9.188;2024-01-30T00:03:05;22.47;;;12.20;;
35578;SDS011;21687;48.900;9.188;2024-01-30T00:05:31;16.57;;;11.80;;
35578;SDS011;21687;48.900;9.188;2024-01-30T00:07:58;19.50;;;11.60;;
35578;SDS011;21687;48.900;9.188;2024-01-30T00:10:24;20.53;;;12.63;;
35578;SDS011;21687;48.900;9.188;2024-01-30T00:12:51;20.00;;;12.77;;
35578;SDS011;21687;48.900;9.188;2024-01-30T00:15:18;20.43;;;12.93;;
35578;SDS011;21687;48.900;9.188;2024-01-30T00:17:44;21.03;;;12.17;;
35578;SDS011;21687;48.900;9.188;2024-01-30T00:20:10;17.57;;;12.10;;
35578;SDS011;21687;48.900;9.188;2024-01-30T00:22:37;20.77;;;12.60;;
35578;SDS011;21687;48.900;9.188;2024-01-30T00:25:03;18.13;;;12.07;;
35578;SDS011;21687;48.900;9.188;2024-01-30T00:27:30;18.83;;;12.10;;
35578;SDS011;21687;48.900;9.188;2024-01-30T00:30:02;26.30;;;13.27;;
35578;SDS011;21687;48.900;9.188;2024-01-30T00:32:30;17.03;;;12.10;;
35578;SDS011;21687;48.900;9.188;2024-01-30T00:34:57;15.63;;;11.53;;
35578;SDS011;21687;48.900;9.188;2024-01-30T00:37:23;20.90;;;12.50;;
35578;SDS011;21687;48.900;9.188;2024-01-30T00:39:50;20.87;;;13.30;;
35578;SDS011;21687;48.900;9.188;2024-01-30T00:42:16;19.90;;;13.30;;
35578;SDS011;21687;48.900;9.188;2024-01-30T00:44:43;20.27;;;12.13;;
35578;SDS011;21687;48.900;9.188;2024-01-30T00:47:09;20.07;;;13.23;;
35578;SDS011;21687;48.900;9.188;2024-01-30T00:49:36;21.13;;;13.00;;
35578;SDS011;21687;48.900;9.188;2024-01-30T00:52:02;19.10;;;12.97;;
35578;SDS011;21687;48.900;9.188;2024-01-30T00:54:29;19.23;;;11.67;;
35578;SDS011;21687;48.900;9.188;2024-01-30T00:56:55;17.37;;;12.03;;
35578;SDS011;21687;48.900;9.188;2024-01-30T00:59:22;20.77;;;13.50;;
35578;SDS011;21687;48.900;9.188;2024-01-30T01:01:48;19.63;;;13.93;;
35578;SDS011;21687;48.900;9.188;2024-01-30T01:04:14;22.63;;;15.10;;
35578;SDS011;21687;48.900;9.188;2024-01-30T01:06:41;25.97;;;12.90;;
35578;SDS011;21687;48.900;9.188;2024-01-30T01:09:10;19.30;;;13.17;;
35578;SDS011;21687;48.900;9.188;2024-01-30T01:11:37;18.80;;;11.70;;
35578;SDS011;21687;48.900;9.188;2024-01-30T01:14:04;22.23;;;12.63;;
35578;SDS011;21687;48.900;9.188;2024-01-30T01:16:31;18.30;;;12.00;;
35578;SDS011;21687;48.900;9.188;2024-01-30T01:18:58;19.57;;;12.27;;
35578;SDS011;21687;48.900;9.188;2024-01-30T01:21:25;17.43;;;12.47;;
35578;SDS011;21687;48.900;9.188;2024-01-30T01:23:51;17.63;;;12.37;;
35578;SDS011;21687;48.900;9.188;2024-01-30T01:26:17;19.70;;;11.67;;
35578;SDS011;21687;48.900;9.188;2024-01-30T01:28:44;16.97;;;11.97;;
35578;SDS011;21687;48.900;9.188;2024-01-30T01:31:10;18.33;;;12.10;;
35578;SDS011;21687;48.900;9.188;2024-01-30T01:33:37;16.90;;;12.30;;
35578;SDS011;21687;48.900;9.188;2024-01-30T01:36:03;18.53;;;12.40;;
35578;SDS011;21687;48.900;9.188;2024-01-30T01:38:30;19.50;;;11.93;;
35578;SDS011;21687;48.900;9.188;2024-01-30T01:40:56;18.37;;;12.10;;
35578;SDS011;21687;48.900;9.188;2024-01-30T01:43:22;16.77;;;11.87;;
35578;SDS011;21687;48.900;9.188;2024-01-30T01:45:49;18.27;;;12.87;;
35578;SDS011;21687;48.900;9.188;2024-01-30T01:48:16;19.60;;;11.97;;
35578;SDS011;21687;48.900;9.188;2024-01-30T01:50:43;21.70;;;12.47;;
35578;SDS011;21687;48.900;9.188;2024-01-30T01:53:09;17.80;;;11.43;;
35578;SDS011;21687;48.900;9.188;2024-01-30T01:55:37;19.33;;;11.93;;
35578;SDS011;21687;48.900;9.188;2024-01-30T01:58:03;15.77;;;12.43;;
35578;SDS011;21687;48.900;9.188;2024-01-30T02:00:30;18.60;;;12.13;;
35578;SDS011;21687;48.900;9.188;2024-01-30T02:02:57;18.50;;;11.83;;
35578;SDS011;21687;48.900;9.188;2024-01-30T02:05:26;17.80;;;12.13;;
35578;SDS011;21687;48.900;9.188;2024-01-30T02:07:52;17.83;;;11.40;;
35578;SDS011;21687;48.900;9.188;2024-01-30T02:10:19;18.00;;;12.37;;
35578;SDS011;21687;48.900;9.188;2024-01-30T02:12:46;23.53;;;12.53;;
35578;SDS011;21687;48.900;9.188;2024-01-30T02:15:13;19.43;;;11.40;;
35578;SDS011;21687;48.900;9.188;2024-01-30T02:17:39;15.93;;;11.27;;
35578;SDS011;21687;48.900;9.188;2024-01-30T02:20:06;16.20;;;11.33;;
35578;SDS011;21687;48.900;9.188;2024-01-30T02:22:33;18.13;;;11.97;;
35578;SDS011;21687;48.900;9.188;2024-01-30T02:25:01;15.67;;;11.70;;
35578;SDS011;21687;48.900;9.188;2024-01-30T02:27:28;16.67;;;11.70;;
35578;SDS011;21687;48.900;9.188;2024-01-30T02:29:54;19.13;;;11.37;;
35578;SDS011;21687;48.900;9.188;2024-01-30T02:32:21;23.07;;;12.23;;
35578;SDS011;21687;48.900;9.188;2024-01-30T02:34:47;23.43;;;12.80;;
35578;SDS011;21687;48.900;9.188;2024-01-30T02:37:14;21.77;;;12.97;;
35578;SDS011;21687;48.900;9.188;2024-01-30T02:39:41;19.13;;;12.00;;
35578;SDS011;21687;48.900;9.188;2024-01-30T02:42:08;25.67;;;13.87;;
35578;SDS011;21687;48.900;9.188;2024-01-30T02:44:34;20.10;;;13.10;;
35578;SDS011;21687;48.900;9.188;2024-01-30T02:47:01;18.40;;;12.13;;
35578;SDS011;21687;48.900;9.188;2024-01-30T02:49:27;18.60;;;12.27;;
35578;SDS011;21687;48.900;9.188;2024-01-30T02:51:54;24.70;;;13.53;;
35578;SDS011;21687;48.900;9.188;2024-01-30T02:54:22;25.30;;;12.83;;
35578;SDS011;21687;48.900;9.188;2024-01-30T02:56:48;18.53;;;12.27;;
35578;SDS011;21687;48.900;9.188;2024-01-30T02:59:14;18.73;;;12.53;;
35578;SDS011;21687;48.900;9.188;2024-01-30T03:01:44;17.37;;;11.67;;
35578;SDS011;21687;48.900;9.188;2024-01-30T03:04:11;23.93;;;12.47;;
35578;SDS011;21687;48.900;9.188;2024-01-30T03:06:38;18.87;;;12.23;;
35578;SDS011;21687;48.900;9.188;2024-01-30T03:09:09;21.57;;;13.40;;
35578;SDS011;21687;48.900;9.188;2024-01-30T03:11:35;18.33;;;12.60;;
35578;SDS011;21687;48.900;9.188;2024-01-30T03:14:02;20.33;;;12.33;;
35578;SDS011;21687;48.900;9.188;2024-01-30T03:16:29;15.67;;;11.40;;
35578;SDS011;21687;48.900;9.188;2024-01-30T03:18:55;16.47;;;12.30;;
35578;SDS011;21687;48.900;9.188;2024-01-30T03:21:21;20.00;;;12.33;;
35578;SDS011;21687;48.900;9.188;2024-01-30T03:23:48;17.80;;;11.60;;
35578;SDS011;21687;48.900;9.188;2024-01-30T03:26:14;17.77;;;12.40;;
35578;SDS011;21687;48.900;9.188;2024-01-30T03:28:41;19.53;;;12.27;;
35578;SDS011;21687;48.900;9.188;2024-01-30T03:31:07;18.00;;;12.20;;
35578;SDS011;21687;48.900;9.188;2024-01-30T03:33:33;16.20;;;11.87;;
35578;SDS011;21687;48.900;9.188;2024-01-30T03:36:04;22.37;;;14.03;;
35578;SDS011;21687;48.900;9.188;2024-01-30T03:38:31;23.33;;;14.80;;
35578;SDS011;21687;48.900;9.188;2024-01-30T03:41:00;22.60;;;14.33;;
35578;SDS011;21687;48.900;9.188;2024-01-30T03:43:26;20.83;;;14.53;;
35578;SDS011;21687;48.900;9.188;2024-01-30T03:45:53;19.27;;;13.03;;
35578;SDS011;21687;48.900;9.188;2024-01-30T03:48:20;20.50;;;13.53;;
35578;SDS011;21687;48.900;9.188;2024-01-30T03:50:46;18.00;;;13.07;;
35578;SDS011;21687;48.900;9.188;2024-01-30T03:53:15;18.80;;;13.20;;
35578;SDS011;21687;48.900;9.188;2024-01-30T03:55:41;20.03;;;12.97;;
35578;SDS011;21687;48.900;9.188;2024-01-30T03:58:07;20.03;;;12.57;;
35578;SDS011;21687;48.900;9.188;2024-01-30T04:00:34;20.17;;;13.23;;
35578;SDS011;21687;48.900;9.188;2024-01-30T04:03:00;21.43;;;14.57;;
35578;SDS011;21687;48.900;9.188;2024-01-30T04:05:27;21.97;;;13.47;;
35578;SDS011;21687;48.900;9.188;2024-01-30T04:07:53;21.70;;;13.40;;
35578;SDS011;21687;48.900;9.188;2024-01-30T04:10:20;21.27;;;13.43;;
35578;SDS011;21687;48.900;9.188;2024-01-30T04:12:46;18.97;;;12.70;;
35578;SDS011;21687;48.900;9.188;2024-01-30T04:15:13;21.40;;;14.43;;
35578;SDS011;21687;48.900;9.188;2024-01-30T04:17:39;22.00;;;13.43;;
35578;SDS011;21687;48.900;9.188;2024-01-30T04:20:06;18.53;;;12.40;;
35578;SDS011;21687;48.900;9.188;2024-01-30T04:22:32;16.37;;;11.67;;
35578;SDS011;21687;48.900;9.188;2024-01-30T04:24:59;20.43;;;13.40;;
35578;SDS011;21687;48.900;9.188;2024-01-30T04:27:25;16.43;;;12.53;;
35578;SDS011;21687;48.900;9.188;2024-01-30T04:29:51;18.77;;;12.77;;
35578;SDS011;21687;48.900;9.188;2024-01-30T04:32:18;20.50;;;13.67;;
35578;SDS011;21687;48.900;9.188;2024-01-30T04:34:44;18.17;;;13.20;;
35578;SDS011;21687;48.900;9.188;2024-01-30T04:37:10;22.67;;;14.27;;
35578;SDS011;21687;48.900;9.188;2024-01-30T04:39:37;20.67;;;14.13;;
35578;SDS011;21687;48.900;9.188;2024-01-30T04:42:03;16.57;;;12.73;;
35578;SDS011;21687;48.900;9.188;2024-01-30T04:44:30;17.03;;;12.37;;
35578;SDS011;21687;48.900;9.188;2024-01-30T04:46:56;18.67;;;12.77;;
35578;SDS011;21687;48.900;9.188;2024-01-30T04:49:26;16.33;;;11.90;;
35578;SDS011;21687;48.900;9.188;2024-01-30T04:51:52;19.17;;;11.77;;
35578;SDS011;21687;48.900;9.188;2024-01-30T04:54:19;15.67;;;11.73;;
35578;SDS011;21687;48.900;9.188;2024-01-30T04:56:45;16.80;;;11.50;;
35578;SDS011;21687;48.900;9.188;2024-01-30T04:59:11;16.83;;;11.47;;
35578;SDS011;21687;48.900;9.188;2024-01-30T05:01:38;18.33;;;11.60;;
35578;SDS011;21687;48.900;9.188;2024-01-30T05:04:07;21.17;;;13.00;;
35578;SDS011;21687;48.900;9.188;2024-01-30T05:06:34;16.60;;;12.07;;
35578;SDS011;21687;48.900;9.188;2024-01-30T05:09:10;18.00;;;12.57;;
35578;SDS011;21687;48.900;9.188;2024-01-30T05:11:39;15.73;;;11.70;;
35578;SDS011;21687;48.900;9.188;2024-01-30T05:14:06;17.07;;;11.63;;
35578;SDS011;21687;48.900;9.188;2024-01-30T05:16:34;19.07;;;13.43;;
35578;SDS011;21687;48.900;9.188;2024-01-30T05:19:00;18.43;;;12.67;;
35578;SDS011;21687;48.900;9.188;2024-01-30T05:21:27;17.97;;;13.23;;
35578;SDS011;21687;48.900;9.188;2024-01-30T05:23:53;17.53;;;12.40;;
35578;SDS011;21687;48.900;9.188;2024-01-30T05:26:20;18.27;;;12.57;;
35578;SDS011;21687;48.900;9.188;2024-01-30T05:28:48;18.57;;;12.70;;
35578;SDS011;21687;48.900;9.188;2024-01-30T05:31:14;19.03;;;13.40;;
35578;SDS011;21687;48.900;9.188;2024-01-30T05:33:40;18.83;;;13.10;;
35578;SDS011;21687;48.900;9.188;2024-01-30T05:36:19;18.90;;;13.23;;
35578;SDS011;21687;48.900;9.188;2024-01-30T05:38:56;18.57;;;12.83;;
35578;SDS011;21687;48.900;9.188;2024-01-30T05:41:32;20.47;;;12.83;;
35578;SDS011;21687;48.900;9.188;2024-01-30T05:44:07;18.23;;;13.67;;
35578;SDS011;21687;48.900;9.188;2024-01-30T05:46:42;17.40;;;13.57;;
35578;SDS011;21687;48.900;9.188;2024-01-30T05:49:17;16.97;;;12.70;;
35578;SDS011;21687;48.900;9.188;2024-01-30T05:51:52;20.90;;;13.30;;
35578;SDS011;21687;48.900;9.188;2024-01-30T05:54:19;18.07;;;13.27;;
35578;SDS011;21687;48.900;9.188;2024-01-30T05:56:47;16.73;;;11.93;;
35578;SDS011;21687;48.900;9.188;2024-01-30T05:59:13;18.67;;;13.27;;
35578;SDS011;21687;48.900;9.188;2024-01-30T06:01:46;22.00;;;12.70;;
35578;SDS011;21687;48.900;9.188;2024-01-30T06:04:13;17.97;;;13.33;;
35578;SDS011;21687;48.900;9.188;2024-01-30T06:06:40;18.63;;;12.47;;
35578;SDS011;21687;48.900;9.188;2024-01-30T06:09:06;19.60;;;12.80;;
35578;SDS011;21687;48.900;9.188;2024-01-30T06:11:34;18.80;;;12.93;;
35578;SDS011;21687;48.900;9.188;2024-01-30T06:14:01;18.23;;;13.20;;
35578;SDS011;21687;48.900;9.188;2024-01-30T06:16:27;18.17;;;12.87;;
35578;SDS011;21687;48.900;9.188;2024-01-30T06:18:54;16.23;;;11.93;;
35578;SDS011;21687;48.900;9.188;2024-01-30T06:21:21;18.57;;;13.17;;
35578;SDS011;21687;48.900;9.188;2024-01-30T06:23:48;17.67;;;12.80;;
35578;SDS011;21687;48.900;9.188;2024-01-30T06:26:15;17.53;;;12.67;;
35578;SDS011;21687;48.900;9.188;2024-01-30T06:28:41;18.30;;;12.10;;
35578;SDS011;21687;48.900;9.188;2024-01-30T06:31:09;19.27;;;12.90;;
35578;SDS011;21687;48.900;9.188;2024-01-30T06:33:35;17.77;;;12.63;;
35578;SDS011;21687;48.900;9.188;2024-01-30T06:36:02;19.23;;;13.20;;
35578;SDS011;21687;48.900;9.188;2024-01-30T06:38:29;15.83;;;12.03;;
35578;SDS011;21687;48.900;9.188;2024-01-30T06:40:55;19.80;;;12.43;;
35578;SDS011;21687;48.900;9.188;2024-01-30T06:43:22;18.03;;;11.77;;
35578;SDS011;21687;48.900;9.188;2024-01-30T06:45:48;16.30;;;12.33;;
35578;SDS011;21687;48.900;9.188;2024-01-30T06:48:15;15.47;;;11.87;;
35578;SDS011;21687;48.900;9.188;2024-01-30T06:50:42;18.63;;;13.10;;
35578;SDS011;21687;48.900;9.188;2024-01-30T06:53:08;16.27;;;12.07;;
35578;SDS011;21687;48.900;9.188;2024-01-30T06:55:34;17.53;;;11.97;;
35578;SDS011;21687;48.900;9.188;2024-01-30T06:58:01;18.20;;;12.70;;
35578;SDS011;21687;48.900;9.188;2024-01-30T07:00:27;18.00;;;12.10;;
35578;SDS011;21687;48.900;9.188;2024-01-30T07:02:54;18.93;;;12.67;;
35578;SDS011;21687;48.900;9.188;2024-01-30T07:05:20;17.27;;;12.70;;
35578;SDS011;21687;48.900;9.188;2024-01-30T07:07:47;18.13;;;12.97;;
35578;SDS011;21687;48.900;9.188;2024-01-30T07:10:13;15.67;;;11.93;;
35578;SDS011;21687;48.900;9.188;2024-01-30T07:12:40;18.20;;;12.43;;
35578;SDS011;21687;48.900;9.188;2024-01-30T07:15:06;17.53;;;12.23;;
35578;SDS011;21687;48.900;9.188;2024-01-30T07:17:34;16.53;;;12.90;;
35578;SDS011;21687;48.900;9.188;2024-01-30T07:20:01;21.33;;;13.27;;
35578;SDS011;21687;48.900;9.188;2024-01-30T07:22:29;16.07;;;12.40;;
35578;SDS011;21687;48.900;9.188;2024-01-30T07:24:56;18.00;;;12.17;;
35578;SDS011;21687;48.900;9.188;2024-01-30T07:27:23;17.50;;;12.57;;
35578;SDS011;21687;48.900;9.188;2024-01-30T07:29:49;22.27;;;12.87;;
35578;SDS011;21687;48.900;9.188;2024-01-30T07:32:15;18.93;;;13.33;;
35578;SDS011;21687;48.900;9.188;2024-01-30T07:34:42;19.10;;;12.63;;
35578;SDS011;21687;48.900;9.188;2024-01-30T07:37:08;16.83;;;12.90;;
35578;SDS011;21687;48.900;9.188;2024-01-30T07:39:36;17.00;;;12.30;;
35578;SDS011;21687;48.900;9.188;2024-01-30T07:42:02;17.73;;;12.47;;
35578;SDS011;21687;48.900;9.188;2024-01-30T07:44:29;18.13;;;11.50;;
35578;SDS011;21687;48.900;9.188;2024-01-30T07:46:55;18.00;;;12.07;;
35578;SDS011;21687;48.900;9.188;2024-01-30T07:49:22;19.03;;;12.63;;
35578;SDS011;21687;48.900;9.188;2024-01-30T07:51:51;20.27;;;12.87;;
35578;SDS011;21687;48.900;9.188;2024-01-30T07:54:17;17.80;;;12.40;;
35578;SDS011;21687;48.900;9.188;2024-01-30T07:56:44;18.13;;;12.57;;
35578;SDS011;21687;48.900;9.188;2024-01-30T07:59:10;19.43;;;12.20;;
35578;SDS011;21687;48.900;9.188;2024-01-30T08:01:37;18.47;;;12.73;;
35578;SDS011;21687;48.900;9.188;2024-01-30T08:04:04;17.13;;;12.00;;
35578;SDS011;21687;48.900;9.188;2024-01-30T08:06:30;17.83;;;12.20;;
35578;SDS011;21687;48.900;9.188;2024-01-30T08:08:57;19.17;;;12.97;;
35578;SDS011;21687;48.900;9.188;2024-01-30T08:11:24;17.43;;;12.27;;
35578;SDS011;21687;48.900;9.188;2024-01-30T08:13:52;15.87;;;11.57;;
35578;SDS011;21687;48.900;9.188;2024-01-30T08:16:18;15.10;;;11.50;;
35578;SDS011;21687;48.900;9.188;2024-01-30T08:18:45;16.13;;;10.23;;
35578;SDS011;21687;48.900;9.188;2024-01-30T08:21:12;16.80;;;11.00;;
35578;SDS011;21687;48.900;9.188;2024-01-30T08:23:38;19.83;;;11.50;;
35578;SDS011;21687;48.900;9.188;2024-01-30T08:26:05;16.20;;;10.80;;
35578;SDS011;21687;48.900;9.188;2024-01-30T08:28:32;16.73;;;11.13;;
35578;SDS011;21687;48.900;9.188;2024-01-30T08:30:58;13.73;;;10.30;;
35578;SDS011;21687;48.900;9.188;2024-01-30T08:33:25;12.83;;;9.73;;
35578;SDS011;21687;48.900;9.188;2024-01-30T08:35:52;14.17;;;9.40;;
35578;SDS011;21687;48.900;9.188;2024-01-30T08:38:19;15.23;;;9.83;;
35578;SDS011;21687;48.900;9.188;2024-01-30T08:40:45;14.73;;;9.63;;
35578;SDS011;21687;48.900;9.188;2024-01-30T08:43:11;12.20;;;9.60;;
35578;SDS011;21687;48.900;9.188;2024-01-30T08:45:38;11.87;;;9.30;;
35578;SDS011;21687;48.900;9.188;2024-01-30T08:48:05;13.13;;;9.23;;
35578;SDS011;21687;48.900;9.188;2024-01-30T08:50:33;13.57;;;9.60;;
35578;SDS011;21687;48.900;9.188;2024-01-30T08:52:59;15.60;;;9.53;;
35578;SDS011;21687;48.900;9.188;2024-01-30T08:55:26;14.90;;;8.90;;
35578;SDS011;21687;48.900;9.188;2024-01-30T08:57:52;13.63;;;9.03;;
35578;SDS011;21687;48.900;9.188;2024-01-30T09:00:19;12.03;;;8.40;;
35578;SDS011;21687;48.900;9.188;2024-01-30T09:02:47;16.77;;;9.53;;
35578;SDS011;21687;48.900;9.188;2024-01-30T09:05:13;15.53;;;9.80;;
35578;SDS011;21687;48.900;9.188;2024-01-30T09:07:58;17.03;;;9.40;;
35578;SDS011;21687;48.900;9.188;2024-01-30T09:10:24;14.53;;;9.80;;
35578;SDS011;21687;48.900;9.188;2024-01-30T09:12:50;14.50;;;9.70;;
35578;SDS011;21687;48.900;9.188;2024-01-30T09:15:36;15.93;;;10.37;;
35578;SDS011;21687;48.900;9.188;2024-01-30T09:18:09;13.70;;;10.40;;
35578;SDS011;21687;48.900;9.188;2024-01-30T09:20:35;17.07;;;10.67;;
35578;SDS011;21687;48.900;9.188;2024-01-30T09:23:02;17.40;;;11.30;;
35578;SDS011;21687;48.900;9.188;2024-01-30T09:25:28;18.30;;;11.33;;
35578;SDS011;21687;48.900;9.188;2024-01-30T09:27:54;16.00;;;10.67;;
35578;SDS011;21687;48.900;9.188;2024-01-30T09:30:24;18.33;;;10.63;;
35578;SDS011;21687;48.900;9.188;2024-01-30T09:32:59;17.30;;;10.07;;
35578;SDS011;21687;48.900;9.188;2024-01-30T09:35:25;13.93;;;9.07;;
35578;SDS011;21687;48.900;9.188;2024-01-30T09:37:52;19.23;;;9.57;;
35578;SDS011;21687;48.900;9.188;2024-01-30T09:40:18;13.57;;;9.20;;
35578;SDS011;21687;48.900;9.188;2024-01-30T09:42:49;17.90;;;9.43;;
35578;SDS011;21687;48.900;9.188;2024-01-30T09:45:19;15.67;;;10.00;;
35578;SDS011;21687;48.900;9.188;2024-01-30T09:47:50;17.40;;;10.03;;
35578;SDS011;21687;48.900;9.188;2024-01-30T09:50:17;13.93;;;9.60;;
35578;SDS011;21687;48.900;9.188;2024-01-30T09:52:44;16.37;;;9.40;;
35578;SDS011;21687;48.900;9.188;2024-01-30T09:55:11;12.03;;;8.60;;
35578;SDS011;21687;48.900;9.188;2024-01-30T09:57:38;12.57;;;8.57;;
35578;SDS011;21687;48.900;9.188;2024-01-30T10:00:07;10.17;;;8.13;;
35578;SDS011;21687;48.900;9.188;2024-01-30T10:02:34;11.00;;;8.73;;
35578;SDS011;21687;48.900;9.188;2024-01-30T10:05:01;11.73;;;8.77;;
35578;SDS011;21687;48.900;9.188;2024-01-30T10:07:28;12.83;;;8.40;;
35578;SDS011;21687;48.900;9.188;2024-01-30T10:09:55;14.63;;;8.73;;
35578;SDS011;21687;48.900;9.188;2024-01-30T10:12:22;11.17;;;7.90;;
35578;SDS011;21687;48.900;9.188;2024-01-30T10:14:51;12.97;;;8.13;;
35578;SDS011;21687;48.900;9.188;2024-01-30T10:17:17;11.43;;;8.07;;
35578;SDS011;21687;48.900;9.188;2024-01-30T10:19:46;13.43;;;8.70;;
35578;SDS011;21687;48.900;9.188;2024-01-30T10:22:13;15.40;;;8.87;;
35578;SDS011;21687;48.900;9.188;2024-01-30T10:24:40;14.47;;;8.30;;
35578;SDS011;21687;48.900;9.188;2024-01-30T10:27:06;14.70;;;9.23;;
35578;SDS011;21687;48.900;9.188;2024-01-30T10:29:33;12.47;;;7.90;;
35578;SDS011;21687;48.900;9.188;2024-01-30T10:32:00;10.20;;;7.90;;
35578;SDS011;21687;48.900;9.188;2024-01-30T10:34:27;10.13;;;8.00;;
35578;SDS011;21687;48.900;9.188;2024-01-30T10:36:59;11.63;;;8.40;;
35578;SDS011;21687;48.900;9.188;2024-01-30T10:39:43;12.07;;;8.00;;
35578;SDS011;21687;48.900;9.188;2024-01-30T10:42:14;13.27;;;8.77;;
35578;SDS011;21687;48.900;9.188;2024-01-30T10:47:26;14.47;;;8.90;;
35578;SDS011;21687;48.900;9.188;2024-01-30T10:49:56;14.37;;;8.37;;
35578;SDS011;21687;48.900;9.188;2024-01-30T10:52:23;10.73;;;7.83;;
35578;SDS011;21687;48.900;9.188;2024-01-30T10:54:51;10.13;;;7.87;;
35578;SDS011;21687;48.900;9.188;2024-01-30T10:57:19;9.57;;;7.57;;
35578;SDS011;21687;48.900;9.188;2024-01-30T10:59:49;11.83;;;7.67;;
35578;SDS011;21687;48.900;9.188;2024-01-30T11:02:25;11.33;;;8.00;;
35578;SDS011;21687;48.900;9.188;2024-01-30T11:04:56;10.97;;;8.40;;
35578;SDS011;21687;48.900;9.188;2024-01-30T11:07:25;12.27;;;8.10;;
35578;SDS011;21687;48.900;9.188;2024-01-30T11:09:54;9.70;;;7.80;;
35578;SDS011;21687;48.900;9.188;2024-01-30T11:12:27;10.03;;;7.43;;
35578;SDS011;21687;48.900;9.188;2024-01-30T11:15:01;14.03;;;7.67;;
35578;SDS011;21687;48.900;9.188;2024-01-30T11:17:42;12.87;;;8.73;;
35578;SDS011;21687;48.900;9.188;2024-01-30T11:20:22;13.37;;;8.10;;
35578;SDS011;21687;48.900;9.188;2024-01-30T11:22:52;12.17;;;8.73;;
35578;SDS011;21687;48.900;9.188;2024-01-30T11:25:21;14.00;;;8.50;;
35578;SDS011;21687;48.900;9.188;2024-01-30T11:27:52;14.40;;;8.97;;
35578;SDS011;21687;48.900;9.188;2024-01-30T11:30:23;13.10;;;8.37;;
35578;SDS011;21687;48.900;9.188;2024-01-30T11:35:32;14.13;;;9.20;;
35578;SDS011;21687;48.900;9.188;2024-01-30T11:38:00;15.40;;;8.57;;
35578;SDS011;21687;48.900;9.188;2024-01-30T11:40:28;11.87;;;8.70;;
35578;SDS011;21687;48.900;9.188;2024-01-30T11:42:56;13.23;;;8.37;;
35578;SDS011;21687;48.900;9.188;2024-01-30T11:45:23;13.97;;;8.77;;
35578;SDS011;21687;48.900;9.188;2024-01-30T11:47:51;16.70;;;8.77;;
35578;SDS011;21687;48.900;9.188;2024-01-30T11:50:18;13.73;;;8.90;;
35578;SDS011;21687;48.900;9.188;2024-01-30T11:52:44;13.93;;;8.70;;
35578;SDS011;21687;48.900;9.188;2024-01-30T11:55:11;12.17;;;8.27;;
35578;SDS011;21687;48.900;9.188;2024-01-30T11:57:39;15.67;;;8.23;;
35578;SDS011;21687;48.900;9.188;2024-01-30T12:00:05;13.97;;;9.53;;
35578;SDS011;21687;48.900;9.188;2024-01-30T12:02:39;14.60;;;9.37;;
35578;SDS011;21687;48.900;9.188;2024-01-30T12:05:06;11.13;;;9.03;;
35578;SDS011;21687;48.900;9.188;2024-01-30T12:07:33;14.30;;;9.13;;
35578;SDS011;21687;48.900;9.188;2024-01-30T12:10:00;11.27;;;8.30;;
35578;SDS011;21687;48.900;9.188;2024-01-30T12:12:28;15.30;;;9.00;;
35578;SDS011;21687;48.900;9.188;2024-01-30T12:14:55;13.90;;;8.63;;
35578;SDS011;21687;48.900;9.188;2024-01-30T12:17:32;16.20;;;9.37;;
35578;SDS011;21687;48.900;9.188;2024-01-30T12:20:06;13.20;;;8.90;;
35578;SDS011;21687;48.900;9.188;2024-01-30T12:22:38;16.33;;;9.10;;
35578;SDS011;21687;48.900;9.188;2024-01-30T12:25:08;15.03;;;9.13;;
35578;SDS011;21687;48.900;9.188;2024-01-30T12:27:41;15.13;;;9.53;;
35578;SDS011;21687;48.900;9.188;2024-01-30T12:30:12;17.00;;;9.97;;
35578;SDS011;21687;48.900;9.188;2024-01-30T12:32:40;13.93;;;8.40;;
35578;SDS011;21687;48.900;9.188;2024-01-30T12:35:11;14.97;;;9.93;;
35578;SDS011;21687;48.900;9.188;2024-01-30T12:37:42;14.90;;;9.47;;
35578;SDS011;21687;48.900;9.188;2024-01-30T12:40:10;11.90;;;9.37;;
35578;SDS011;21687;48.900;9.188;2024-01-30T12:42:39;14.13;;;9.10;;
35578;SDS011;21687;48.900;9.188;2024-01-30T12:45:11;14.03;;;9.43;;
35578;SDS011;21687;48.900;9.188;2024-01-30T12:47:38;16.70;;;10.53;;
35578;SDS011;21687;48.900;9.188;2024-01-30T12:50:05;16.40;;;9.80;;
35578;SDS011;21687;48.900;9.188;2024-01-30T12:52:31;17.97;;;10.80;;
35578;SDS011;21687;48.900;9.188;2024-01-30T12:54:58;15.63;;;10.17;;
35578;SDS011;21687;48.900;9.188;2024-01-30T12:57:24;15.97;;;10.10;;
35578;SDS011;21687;48.900;9.188;2024-01-30T12:59:51;14.90;;;10.13;;
35578;SDS011;21687;48.900;9.188;2024-01-30T13:02:17;14.73;;;11.07;;
35578;SDS011;21687;48.900;9.188;2024-01-30T13:04:43;14.20;;;10.00;;
35578;SDS011;21687;48.900;9.188;2024-01-30T13:07:10;14.43;;;9.53;;
35578;SDS011;21687;48.900;9.188;2024-01-30T13:09:37;15.50;;;9.53;;
35578;SDS011;21687;48.900;9.188;2024-01-30T13:12:04;15.37;;;9.63;;
35578;SDS011;21687;48.900;9.188;2024-01-30T13:14:30;14.13;;;9.43;;
35578;SDS011;21687;48.900;9.188;2024-01-30T13:16:57;13.57;;;9.77;;
35578;SDS011;21687;48.900;9.188;2024-01-30T13:19:23;14.43;;;9.53;;
35578;SDS011;21687;48.900;9.188;2024-01-30T13:21:50;19.00;;;9.53;;
35578;SDS011;21687;48.900;9.188;2024-01-30T13:24:17;14.67;;;10.07;;
35578;SDS011;21687;48.900;9.188;2024-01-30T13:26:46;12.60;;;9.30;;
35578;SDS011;21687;48.900;9.188;2024-01-30T13:29:13;12.23;;;9.60;;
35578;SDS011;21687;48.900;9.188;2024-01-30T13:31:40;15.83;;;9.83;;
35578;SDS011;21687;48.900;9.188;2024-01-30T13:34:06;15.57;;;9.23;;
35578;SDS011;21687;48.900;9.188;2024-01-30T13:36:33;13.17;;;9.37;;
35578;SDS011;21687;48.900;9.188;2024-01-30T13:38:59;14.67;;;9.80;;
35578;SDS011;21687;48.900;9.188;2024-01-30T13:41:25;16.63;;;9.77;;
35578;SDS011;21687;48.900;9.188;2024-01-30T13:43:52;22.40;;;9.63;;
35578;SDS011;21687;48.900;9.188;2024-01-30T13:46:19;15.00;;;9.50;;
35578;SDS011;21687;48.900;9.188;2024-01-30T13:48:45;15.70;;;10.03;;
35578;SDS011;21687;48.900;9.188;2024-01-30T13:51:12;13.47;;;9.70;;
35578;SDS011;21687;48.900;9.188;2024-01-30T13:53:39;18.43;;;10.00;;
35578;SDS011;21687;48.900;9.188;2024-01-30T13:56:05;15.63;;;9.90;;
35578;SDS011;21687;48.900;9.188;2024-01-30T13:58:32;13.97;;;9.10;;
35578;SDS011;21687;48.900;9.188;2024-01-30T14:01:01;15.57;;;9.63;;
35578;SDS011;21687;48.900;9.188;2024-01-30T14:03:28;12.93;;;9.70;;
35578;SDS011;21687;48.900;9.188;2024-01-30T14:05:54;16.97;;;9.17;;
35578;SDS011;21687;48.900;9.188;2024-01-30T14:08:20;12.50;;;8.30;;
35578;SDS011;21687;48.900;9.188;2024-01-30T14:10:49;14.17;;;9.93;;
35578;SDS011;21687;48.900;9.188;2024-01-30T14:13:15;14.60;;;9.13;;
35578;SDS011;21687;48.900;9.188;2024-01-30T14:15:42;11.60;;;9.03;;
35578;SDS011;21687;48.900;9.188;2024-01-30T14:18:08;12.03;;;9.07;;
35578;SDS011;21687;48.900;9.188;2024-01-30T14:20:36;14.33;;;9.27;;
35578;SDS011;21687;48.900;9.188;2024-01-30T14:23:02;10.70;;;8.70;;
35578;SDS011;21687;48.900;9.188;2024-01-30T14:25:29;14.27;;;9.03;;
35578;SDS011;21687;48.900;9.188;2024-01-30T14:27:56;14.80;;;9.97;;
35578;SDS011;21687;48.900;9.188;2024-01-30T14:30:22;14.83;;;9.53;;
35578;SDS011;21687;48.900;9.188;2024-01-30T14:32:48;14.50;;;10.87;;